Time;durP1;ratioP1;P1;durP2;ratioP2;P2;SDS_P1;SDS_P2;PMS_P1;PMS_P2;Temp;Humidity;BMP_temperature;BMP_pressure;BME280_temperature;BME280_humidity;BME280_pressure;Samples;Min_cycle;Max_cycle;Signal;HPM_P1;HPM_P2
2023/02/16 00:01:46;;;;;;;38.40;20.33;;;;;;;-1.56;95.97;101990.81;5049802;28;20060;-66
2023/02/16 00:04:18;;;;;;;35.83;19.97;;;;;;;-1.33;95.13;102001.84;5050128;28;20106;-68
2023/02/16 00:06:45;;;;;;;36.63;19.60;;;;;;;-1.19;93.35;102000.78;5050055;28;20023;-65
2023/02/16 00:09:11;;;;;;;35.20;18.70;;;;;;;-1.10;91.40;101994.94;5049493;28;20021;-68
2023/02/16 00:14:25;;;;;;;46.43;21.57;;;;;;;-0.48;93.00;101993.91;5049128;28;20490;-64
2023/02/16 00:16:51;;;;;;;36.50;19.03;;;;;;;-0.40;88.60;101985.44;5048468;28;20467;-64
2023/02/16 00:19:28;;;;;;;32.20;19.20;;;;;;;-0.39;88.40;101954.25;5047738;28;20029;-67
2023/02/16 00:21:56;;;;;;;34.30;19.57;;;;;;;-0.40;85.50;101958.44;5049770;28;20083;-67
2023/02/16 00:24:23;;;;;;;30.17;18.33;;;;;;;-0.38;85.23;101995.00;5050254;28;20017;-64
2023/02/16 00:26:49;;;;;;;29.77;18.27;;;;;;;-0.62;86.23;101995.88;5048994;28;20483;-63
2023/02/16 00:29:23;;;;;;;31.07;17.57;;;;;;;-0.94;87.16;101965.41;5050179;28;20032;-64
2023/02/16 00:31:49;;;;;;;27.70;17.13;;;;;;;-0.74;87.74;102003.03;5049731;28;20033;-68
2023/02/16 00:34:39;;;;;;;33.43;19.17;;;;;;;-0.68;87.46;102007.88;5049431;28;20044;-67
2023/02/16 00:37:13;;;;;;;;;;;;;;;-0.62;86.31;102003.47;5047862;28;20094;-68
2023/02/16 00:39:40;;;;;;;31.87;17.93;;;;;;;-0.64;85.23;101994.78;5047101;28;19920;-67
2023/02/16 00:42:14;;;;;;;35.40;18.90;;;;;;;-0.92;86.21;101991.84;5048566;28;20049;-67
2023/02/16 00:44:45;;;;;;;32.23;18.80;;;;;;;-1.12;87.87;101999.84;5049792;28;20060;-65
2023/02/16 00:47:34;;;;;;;35.97;18.87;;;;;;;-1.11;89.18;101995.66;5049576;28;20062;-64
2023/02/16 00:49:59;;;;;;;33.67;19.70;;;;;;;-0.99;88.68;101990.28;5049510;28;20399;-67
2023/02/16 00:52:25;;;;;;;32.40;18.27;;;;;;;-0.85;87.50;101994.31;5049698;28;20021;-68
2023/02/16 00:54:50;;;;;;;37.30;18.73;;;;;;;-0.80;86.45;101989.72;5049594;28;20028;-67
2023/02/16 00:57:17;;;;;;;35.07;18.83;;;;;;;-0.94;86.27;101985.72;5049343;28;20021;-66
2023/02/16 00:59:44;;;;;;;35.43;19.93;;;;;;;-1.07;87.98;101988.56;5035949;28;20025;-66
2023/02/16 01:02:09;;;;;;;33.03;19.50;;;;;;;-1.13;88.83;101987.91;5040947;28;20022;-66
2023/02/16 01:04:35;;;;;;;35.80;18.97;;;;;;;-1.26;89.63;101983.13;5041894;28;20032;-67
2023/02/16 01:12:28;;;;;;;35.27;19.57;;;;;;;-1.61;91.30;101982.69;5052683;28;20553;-65
2023/02/16 01:14:55;;;;;;;35.33;19.27;;;;;;;-1.64;91.22;101980.72;5052780;28;20036;-66
2023/02/16 01:17:21;;;;;;;33.20;18.97;;;;;;;-1.64;90.67;101975.66;5053371;28;20017;-65
2023/02/16 01:19:47;;;;;;;32.23;19.20;;;;;;;-1.57;90.43;101979.78;5053209;28;20094;-66
2023/02/16 01:22:12;;;;;;;33.20;19.97;;;;;;;-1.55;89.65;101973.25;5034693;28;20472;-66
2023/02/16 01:24:38;;;;;;;29.43;17.77;;;;;;;-1.66;90.05;101971.16;5035233;28;20025;-66
2023/02/16 01:27:03;;;;;;;33.90;18.13;;;;;;;-1.55;90.09;101980.84;5052562;28;20087;-70
2023/02/16 01:29:28;;;;;;;31.37;17.67;;;;;;;-1.58;89.48;101965.31;5052834;28;20070;-66
2023/02/16 01:31:54;;;;;;;31.97;18.27;;;;;;;-1.65;89.34;101966.25;5033784;28;20037;-66
2023/02/16 01:34:20;;;;;;;33.20;18.77;;;;;;;-1.57;89.10;101966.22;5052863;28;20390;-65
2023/02/16 01:36:47;;;;;;;31.07;17.87;;;;;;;-1.74;87.90;101916.28;5052523;28;20078;-65
2023/02/16 01:39:16;;;;;;;32.17;17.53;;;;;;;-1.44;86.82;101965.94;5051958;28;20025;-67
2023/02/16 01:42:13;;;;;;;34.78;18.35;;;;;;;-1.49;84.67;101970.50;5052388;28;20033;-69
2023/02/16 01:44:51;;;;;;;33.53;18.30;;;;;;;-1.64;84.05;101978.19;5052684;28;20029;-65
2023/02/16 01:47:43;;;;;;;31.97;18.00;;;;;;;-1.67;84.37;101970.28;5052704;28;20463;-66
2023/02/16 01:50:17;;;;;;;33.60;18.33;;;;;;;-1.59;84.02;101972.75;5052546;28;20029;-66
2023/02/16 01:52:56;;;;;;;30.70;18.50;;;;;;;-1.71;84.17;101959.63;5052119;28;20028;-66
2023/02/16 01:55:38;;;;;;;36.55;18.45;;;;;;;-1.61;84.12;101962.44;5052281;28;20445;-63
2023/02/16 01:58:05;;;;;;;35.10;19.83;;;;;;;-1.58;84.04;101972.91;5050992;28;20070;-66
2023/02/16 02:00:51;;;;;;;35.73;19.77;;;;;;;-1.51;84.31;101977.00;5048936;28;20028;-65
2023/02/16 02:06:20;;;;;;;32.67;18.63;;;;;;;-1.55;84.08;101979.97;5049922;28;20036;-63
2023/02/16 02:09:03;;;;;;;32.60;17.58;;;;;;;-1.52;84.35;101976.13;5049422;28;20029;-66
2023/02/16 02:11:35;;;;;;;31.70;17.50;;;;;;;-1.46;84.72;101980.94;5048334;28;20420;-67
2023/02/16 02:14:21;;;;;;;33.20;17.90;;;;;;;-1.58;83.52;101965.31;5050612;28;20104;-68
2023/02/16 02:17:15;;;;;;;39.60;18.37;;;;;;;-1.49;83.45;101980.63;5051674;28;20079;-64
2023/02/16 02:20:01;;;;;;;34.93;17.67;;;;;;;-1.54;83.37;101964.91;4954036;28;20034;-66
2023/02/16 02:25:36;;;;;;;31.02;17.38;;;;;;;-1.57;83.25;101969.66;4970099;28;20520;-69
2023/02/16 02:28:03;;;;;;;33.03;17.43;;;;;;;-1.67;83.15;101976.97;4970234;28;20023;-65
2023/02/16 02:31:07;;;;;;;31.90;17.47;;;;;;;-1.69;83.04;101968.31;4970063;28;20157;-67
2023/02/16 02:33:51;;;;;;;33.80;17.73;;;;;;;-1.79;83.13;101977.41;4931127;29;20394;-66
2023/02/16 02:36:26;;;;;;;31.00;17.13;;;;;;;-1.77;83.18;101971.63;4926296;29;20075;-65
2023/02/16 02:38:54;;;;;;;33.00;17.13;;;;;;;-1.82;82.93;101978.69;4932048;29;20050;-66
2023/02/16 02:42:02;;;;;;;35.00;19.37;;;;;;;-1.89;83.36;101972.06;4931430;29;20037;-65
2023/02/16 02:44:21;;;;;;;29.93;17.43;;;;;;;-1.95;83.54;101962.16;4931479;29;20043;-66
2023/02/16 02:46:47;;;;;;;34.67;18.43;;;;;;;-1.95;83.34;101984.94;4931898;29;20059;-64
2023/02/16 02:49:13;;;;;;;31.57;18.33;;;;;;;-2.41;86.37;101987.38;4931814;29;20052;-65
2023/02/16 02:51:39;;;;;;;38.77;17.83;;;;;;;-2.52;87.67;101986.13;4931659;29;20060;-62
2023/02/16 03:00:40;;;;;;;24.67;14.02;;;;;;;-3.01;91.58;101994.06;4991726;28;20578;-65
2023/02/16 03:03:23;;;;;;;;;;;;;;;-3.16;93.40;101990.66;5004589;28;20121;-63
2023/02/16 03:05:57;;;;;;;37.40;19.27;;;;;;;-3.28;94.81;101995.19;5008711;28;19909;-68
2023/02/16 03:08:26;;;;;;;41.97;22.10;;;;;;;-3.33;95.32;102001.31;5008730;28;20072;-62
2023/02/16 03:14:16;;;;;;;40.17;21.47;;;;;;;-3.34;95.36;101989.44;5293907;23;20195;-64
2023/02/16 03:30:32;;;;;;;34.47;19.30;;;;;;;-3.42;95.53;101997.72;5051055;28;20398;-64
2023/02/16 03:32:57;;;;;;;37.17;18.63;;;;;;;-3.49;96.23;101996.09;5050951;28;20114;-64
2023/02/16 03:35:24;;;;;;;36.90;19.20;;;;;;;-3.39;96.58;102002.22;5050663;28;20053;-64
2023/02/16 03:37:49;;;;;;;38.87;20.00;;;;;;;-3.49;97.09;102001.16;5051106;28;20513;-66
2023/02/16 03:40:28;;;;;;;39.90;19.00;;;;;;;-3.39;97.24;101999.69;5050376;28;20056;-64
2023/02/16 03:43:00;;;;;;;48.28;19.67;;;;;;;-3.49;96.47;101998.63;5050543;28;20043;-63
2023/02/16 03:45:27;;;;;;;37.53;19.10;;;;;;;-3.45;97.14;101998.25;5050959;28;20115;-67
2023/02/16 03:47:53;;;;;;;38.07;19.27;;;;;;;-3.48;96.86;101980.22;5050401;28;20039;-64
2023/02/16 03:50:19;;;;;;;38.17;19.93;;;;;;;-3.41;97.33;101997.00;5050615;28;20029;-64
2023/02/16 03:52:45;;;;;;;33.70;19.20;;;;;;;-3.34;97.38;101996.09;5050516;28;20040;-64
2023/02/16 03:55:10;;;;;;;43.07;20.00;;;;;;;-3.60;96.92;101935.84;5049768;28;20029;-64
2023/02/16 03:57:36;;;;;;;36.33;19.90;;;;;;;-3.11;97.00;101991.19;5050539;28;20017;-64
2023/02/16 04:00:21;;;;;;;40.87;20.67;;;;;;;-3.09;95.76;101987.19;5049885;28;20029;-64
2023/02/16 04:02:46;;;;;;;42.23;20.10;;;;;;;-3.05;95.16;101988.47;4988938;28;20046;-64
2023/02/16 04:05:33;;;;;;;36.63;20.03;;;;;;;-3.04;95.27;101987.75;4930529;29;20035;-63
2023/02/16 04:07:58;;;;;;;39.77;19.93;;;;;;;-2.83;95.75;101984.25;4930938;29;20123;-66
2023/02/16 04:10:24;;;;;;;39.27;20.07;;;;;;;-2.92;94.66;101943.69;4930962;29;20122;-63
2023/02/16 04:12:49;;;;;;;38.43;19.90;;;;;;;-2.55;92.47;101980.75;4930881;29;20044;-68
2023/02/16 04:15:18;;;;;;;39.07;20.27;;;;;;;-2.49;90.33;101991.56;4930055;29;20135;-63
2023/02/16 04:17:44;;;;;;;33.07;19.60;;;;;;;-2.53;89.52;101986.88;4926786;29;20490;-64
2023/02/16 04:20:12;;;;;;;36.87;19.57;;;;;;;-2.47;88.53;101999.31;4930250;29;20046;-64
2023/02/16 04:22:38;;;;;;;31.50;17.70;;;;;;;-2.55;87.83;101983.28;4930775;29;20040;-63
2023/02/16 04:25:04;;;;;;;33.77;18.57;;;;;;;-2.53;87.29;101991.94;4930731;29;20088;-64
2023/02/16 04:27:30;;;;;;;33.73;17.53;;;;;;;-2.74;86.03;101989.47;4930685;29;20109;-63
2023/02/16 04:29:55;;;;;;;33.43;19.13;;;;;;;-2.90;86.61;101991.84;4930586;29;20047;-64
2023/02/16 04:32:21;;;;;;;40.00;19.67;;;;;;;-2.74;86.18;101999.59;4930560;29;20040;-67
2023/02/16 04:34:46;;;;;;;37.97;19.63;;;;;;;-2.79;86.08;101994.91;4973862;28;20038;-63
2023/02/16 04:37:11;;;;;;;38.70;21.37;;;;;;;-3.06;86.33;101958.91;4991797;28;20048;-66
2023/02/16 04:39:37;;;;;;;40.80;18.83;;;;;;;-2.81;86.14;101998.88;4990602;28;20117;-66
2023/02/16 04:42:04;;;;;;;40.37;19.70;;;;;;;-2.80;86.09;102000.69;4998942;28;20034;-63
2023/02/16 04:44:29;;;;;;;33.23;19.10;;;;;;;-2.78;86.62;102016.03;5053585;28;20017;-67
2023/02/16 04:46:55;;;;;;;37.40;19.80;;;;;;;-2.83;86.44;102020.56;5053311;28;20442;-63
2023/02/16 04:49:20;;;;;;;36.97;20.33;;;;;;;-2.83;86.66;102017.13;5062316;28;20510;-69
2023/02/16 04:51:47;;;;;;;37.10;20.13;;;;;;;-2.82;85.74;102037.50;5056118;28;20573;-67
2023/02/16 04:54:13;;;;;;;40.90;21.20;;;;;;;-2.94;85.33;102020.94;5034999;28;20029;-67
2023/02/16 04:56:38;;;;;;;43.20;21.07;;;;;;;-2.99;85.52;102012.84;5053447;28;20506;-63
2023/02/16 04:59:04;;;;;;;48.10;21.30;;;;;;;-3.00;85.90;102020.25;5052892;28;20025;-66
2023/02/16 05:01:29;;;;;;;46.63;20.77;;;;;;;-2.90;85.84;102020.59;5034272;28;20072;-66
2023/02/16 05:03:55;;;;;;;43.23;21.47;;;;;;;-2.79;85.63;102027.78;5034391;28;20033;-66
2023/02/16 05:06:21;;;;;;;49.87;21.23;;;;;;;-2.73;85.37;102021.63;5052481;28;20029;-65
2023/02/16 05:08:47;;;;;;;41.43;22.43;;;;;;;-2.73;84.86;102024.16;5052917;28;20029;-63
2023/02/16 05:16:42;;;;;;;50.63;24.03;;;;;;;-2.77;85.45;102003.59;5050423;28;20545;-66
2023/02/16 05:19:08;;;;;;;51.73;23.07;;;;;;;-2.66;84.74;102019.06;5050338;28;20028;-66
2023/02/16 05:21:34;;;;;;;40.77;23.03;;;;;;;-2.60;84.50;102035.84;5050963;28;20028;-66
2023/02/16 05:24:06;;;;;;;41.60;20.13;;;;;;;-2.66;84.08;102034.25;5051775;28;20028;-63
2023/02/16 05:26:33;;;;;;;36.33;20.13;;;;;;;-2.79;84.53;102032.81;5052066;28;20029;-62
2023/02/16 05:28:59;;;;;;;39.57;21.73;;;;;;;-2.82;85.59;102042.56;5051733;28;20021;-67
2023/02/16 05:31:26;;;;;;;35.73;19.20;;;;;;;-2.81;85.58;102039.31;5051115;28;20025;-66
2023/02/16 05:33:52;;;;;;;34.77;18.67;;;;;;;-3.19;85.39;101995.38;5050666;28;20025;-67
2023/02/16 05:36:17;;;;;;;54.70;26.57;;;;;;;-3.22;85.73;102010.16;5052525;28;20025;-63
2023/02/16 05:38:43;;;;;;;46.13;25.70;;;;;;;-3.23;86.21;102004.94;5052441;28;20044;-66
2023/02/16 05:41:09;;;;;;;46.67;23.07;;;;;;;-2.99;86.70;102037.19;5052312;28;20027;-64
2023/02/16 05:43:34;;;;;;;36.60;21.07;;;;;;;-2.93;87.01;102043.88;5051461;28;20043;-63
2023/02/16 05:46:06;;;;;;;44.50;22.83;;;;;;;-2.72;87.05;102052.13;5052019;28;20068;-66
2023/02/16 05:48:31;;;;;;;45.50;22.73;;;;;;;-2.81;87.41;102049.44;5049805;28;20558;-68
2023/02/16 05:50:57;;;;;;;41.60;24.10;;;;;;;-2.77;87.81;102050.69;5032158;28;20124;-67
2023/02/16 05:53:22;;;;;;;45.10;22.77;;;;;;;-2.78;88.41;102049.81;5050716;28;20028;-63
2023/02/16 05:55:48;;;;;;;41.77;22.63;;;;;;;-2.78;88.58;102044.75;5051355;28;20029;-65
2023/02/16 05:58:15;;;;;;;49.27;23.03;;;;;;;-2.74;88.81;102053.59;5050499;28;20104;-66
2023/02/16 06:00:40;;;;;;;43.47;21.93;;;;;;;-2.59;88.62;102056.97;5051075;28;20029;-67
2023/02/16 06:03:06;;;;;;;39.83;21.60;;;;;;;-2.46;88.74;102060.16;5052353;28;20050;-67
2023/02/16 06:05:51;;;;;;;35.87;20.67;;;;;;;-2.36;88.93;102058.72;5052041;28;20036;-66
2023/02/16 06:08:16;;;;;;;37.23;21.83;;;;;;;-2.36;89.13;102049.47;4990490;28;20468;-66
2023/02/16 06:10:42;;;;;;;46.63;22.63;;;;;;;-2.21;89.22;102070.56;4989862;28;20054;-67
2023/02/16 06:13:07;;;;;;;41.43;22.30;;;;;;;-2.36;89.15;102033.41;4990135;28;20031;-66
2023/02/16 06:15:33;;;;;;;40.17;22.17;;;;;;;-2.49;89.23;102015.97;4990116;28;20034;-66
2023/02/16 06:17:58;;;;;;;43.27;22.93;;;;;;;-2.13;89.33;102072.34;4989734;28;20112;-64
2023/02/16 06:20:23;;;;;;;46.87;26.80;;;;;;;-2.41;89.55;102026.94;4989334;28;20164;-67
2023/02/16 06:22:49;;;;;;;42.43;23.97;;;;;;;-2.19;89.77;102070.75;4989990;28;20066;-64
2023/02/16 06:25:14;;;;;;;47.83;26.17;;;;;;;-2.16;89.49;102082.09;4989571;28;20026;-67
2023/02/16 06:27:40;;;;;;;56.53;30.60;;;;;;;-2.70;89.67;101959.69;4989923;28;20089;-66
2023/02/16 06:30:07;;;;;;;57.40;28.23;;;;;;;-1.90;89.59;102086.69;4989882;28;20038;-64
2023/02/16 06:32:32;;;;;;;48.97;27.47;;;;;;;-1.85;89.22;102082.16;4989641;28;20058;-66
2023/02/16 06:34:58;;;;;;;47.77;26.83;;;;;;;-1.86;89.52;102075.28;4989426;28;20126;-68
2023/02/16 06:37:24;;;;;;;51.57;28.07;;;;;;;-1.84;90.13;102084.84;4989507;28;20056;-66
2023/02/16 06:39:49;;;;;;;43.60;26.30;;;;;;;-1.84;90.24;102082.31;5034391;28;20060;-67
2023/02/16 06:42:15;;;;;;;39.70;23.50;;;;;;;-1.75;90.54;102087.53;5051355;28;20063;-64
2023/02/16 06:44:43;;;;;;;40.47;24.17;;;;;;;-1.84;91.12;102069.66;5051484;28;20021;-69
2023/02/16 06:47:08;;;;;;;42.03;23.10;;;;;;;-1.59;91.74;102084.19;5051153;28;20793;-69
2023/02/16 06:49:34;;;;;;;37.17;22.70;;;;;;;-1.49;91.79;102089.53;5050695;28;20119;-66
2023/02/16 06:52:00;;;;;;;42.60;24.17;;;;;;;-1.66;91.75;102092.72;5051283;28;20104;-67
2023/02/16 06:54:25;;;;;;;44.30;24.10;;;;;;;-1.68;93.04;102094.19;5033202;28;20037;-66
2023/02/16 06:56:51;;;;;;;43.00;24.13;;;;;;;-1.99;95.35;102094.16;5050200;28;20029;-64
2023/02/16 06:59:16;;;;;;;44.83;24.97;;;;;;;-1.72;96.46;102095.47;5053510;28;20029;-64
2023/02/16 07:01:41;;;;;;;47.50;24.90;;;;;;;-1.57;96.32;102078.56;5050995;28;20095;-63
2023/02/16 07:04:07;;;;;;;45.57;25.33;;;;;;;-1.26;95.30;102099.69;5015439;28;20033;-65
2023/02/16 07:06:33;;;;;;;49.00;27.13;;;;;;;-1.09;95.07;102090.53;5032899;28;20365;-65
2023/02/16 07:08:58;;;;;;;50.77;26.47;;;;;;;-0.85;94.47;102095.75;5050147;28;20017;-64
2023/02/16 07:11:24;;;;;;;70.90;38.87;;;;;;;-0.83;93.61;102085.75;5050809;28;20398;-68
2023/02/16 07:13:50;;;;;;;51.17;26.27;;;;;;;-0.59;93.56;102092.56;5050608;28;20052;-63
2023/02/16 07:16:15;;;;;;;60.40;35.00;;;;;;;-0.42;93.90;102090.97;5050241;28;20033;-67
2023/02/16 07:18:41;;;;;;;62.23;37.33;;;;;;;-0.41;92.83;102096.19;5051769;28;20041;-65
2023/02/16 07:21:06;;;;;;;52.43;28.70;;;;;;;-0.34;94.19;102092.66;5049022;28;20151;-66
2023/02/16 07:23:34;;;;;;;43.83;25.53;;;;;;;-0.12;93.74;102100.03;5048694;28;20025;-66
2023/02/16 07:25:59;;;;;;;46.30;27.40;;;;;;;0.06;93.83;102089.25;5041912;28;20087;-65
2023/02/16 07:28:25;;;;;;;44.17;24.33;;;;;;;0.15;93.56;102091.91;5046153;28;20495;-66
2023/02/16 07:30:50;;;;;;;43.60;25.03;;;;;;;-0.10;93.56;102025.84;5050069;28;20068;-66
2023/02/16 07:33:16;;;;;;;48.37;27.87;;;;;;;0.30;93.75;102069.75;5030409;28;20029;-66
2023/02/16 07:35:42;;;;;;;41.80;24.50;;;;;;;0.49;93.58;102080.16;5050006;28;20037;-67
2023/02/16 07:38:07;;;;;;;41.13;23.87;;;;;;;0.63;92.71;102077.38;5046367;28;20497;-67
2023/02/16 07:40:33;;;;;;;41.47;24.40;;;;;;;0.70;93.09;102075.47;5049114;28;20035;-66
2023/02/16 07:43:00;;;;;;;39.93;23.63;;;;;;;0.70;93.06;102052.59;5047238;28;20402;-70
2023/02/16 07:45:26;;;;;;;37.47;23.43;;;;;;;0.87;93.18;102051.78;5046650;28;20025;-62
2023/02/16 07:47:51;;;;;;;38.77;24.03;;;;;;;0.89;93.93;102030.84;5043433;28;20040;-65
2023/02/16 07:50:17;;;;;;;42.30;25.03;;;;;;;1.37;93.04;102065.22;5043167;28;20029;-68
2023/02/16 07:52:42;;;;;;;39.60;25.47;;;;;;;1.50;93.10;102054.66;5046793;28;20035;-66
2023/02/16 07:55:10;;;;;;;38.50;24.13;;;;;;;1.65;92.42;102063.78;5047816;28;20407;-64
2023/02/16 07:57:37;;;;;;;37.90;22.70;;;;;;;1.54;92.08;102018.56;5047727;28;20028;-66
2023/02/16 08:00:04;;;;;;;35.77;23.23;;;;;;;1.73;91.28;102011.97;5043176;28;20033;-65
2023/02/16 08:02:29;;;;;;;39.70;23.67;;;;;;;2.15;91.41;102050.75;5046163;28;20036;-63
2023/02/16 08:04:55;;;;;;;40.63;23.33;;;;;;;2.34;90.09;102050.84;5044188;28;20029;-66
2023/02/16 08:07:21;;;;;;;36.03;21.80;;;;;;;2.38;88.97;102047.81;5048422;28;20032;-70
2023/02/16 08:09:47;;;;;;;32.43;21.00;;;;;;;2.56;88.34;102041.94;5042485;28;20028;-66
2023/02/16 08:12:13;;;;;;;35.05;20.23;;;;;;;2.56;88.46;102021.53;5046687;28;20065;-64
2023/02/16 08:14:39;;;;;;;35.20;20.87;;;;;;;2.81;87.97;102049.34;5042257;28;20053;-68
2023/02/16 08:17:06;;;;;;;33.90;19.92;;;;;;;2.97;86.73;102049.13;5048903;28;20037;-62
2023/02/16 08:19:32;;;;;;;33.15;19.38;;;;;;;3.09;86.95;102051.94;5049531;28;20029;-67
2023/02/16 08:22:04;;;;;;;34.53;21.02;;;;;;;3.22;87.08;102047.19;5049156;28;20029;-63
2023/02/16 08:24:29;;;;;;;32.17;20.58;;;;;;;3.05;86.96;102012.47;5049694;28;20059;-69
2023/02/16 08:26:55;;;;;;;30.42;20.05;;;;;;;3.34;86.91;102047.41;5049758;28;20052;-68
2023/02/16 08:29:22;;;;;;;39.55;20.98;;;;;;;3.42;87.08;102042.13;5050132;28;20483;-66
2023/02/16 08:31:48;;;;;;;34.65;22.27;;;;;;;3.61;86.30;102050.66;5049662;28;20028;-65
2023/02/16 08:34:16;;;;;;;35.17;22.02;;;;;;;3.60;85.75;102038.69;5047599;28;20045;-66
2023/02/16 08:36:46;;;;;;;36.25;21.52;;;;;;;3.65;85.78;102013.53;5048457;28;20080;-68
2023/02/16 08:39:17;;;;;;;38.53;22.95;;;;;;;3.95;85.37;102034.91;5047461;28;20095;-70
2023/02/16 08:41:45;;;;;;;35.10;22.70;;;;;;;4.09;84.24;102033.56;5049051;28;20064;-66
2023/02/16 08:44:11;;;;;;;37.72;22.02;;;;;;;4.17;83.29;102036.06;5045578;28;20091;-66
2023/02/16 08:46:39;;;;;;;38.13;23.60;;;;;;;4.27;83.31;102035.19;5049479;28;20036;-66
2023/02/16 08:49:06;;;;;;;35.30;22.00;;;;;;;4.42;82.34;102032.19;5049277;28;20051;-67
2023/02/16 08:51:36;;;;;;;35.80;21.73;;;;;;;4.54;82.41;102035.81;5049468;28;20021;-67
2023/02/16 08:54:04;;;;;;;36.70;23.42;;;;;;;4.70;81.97;102038.06;5049536;28;20028;-66
2023/02/16 08:56:30;;;;;;;37.15;24.38;;;;;;;4.87;80.21;102034.34;5049469;28;20064;-67
2023/02/16 08:58:56;;;;;;;36.78;23.17;;;;;;;4.96;79.55;102037.72;5049188;28;20056;-66
2023/02/16 09:01:22;;;;;;;36.60;22.48;;;;;;;5.09;79.25;102026.84;5049218;28;20056;-65
2023/02/16 09:03:48;;;;;;;32.35;20.10;;;;;;;5.17;79.12;102035.16;5049616;28;20486;-62
2023/02/16 09:06:16;;;;;;;33.00;20.02;;;;;;;5.25;77.74;102029.03;5049408;28;20252;-67
2023/02/16 09:08:42;;;;;;;36.78;23.80;;;;;;;5.05;78.15;101993.16;5014212;28;20415;-66
2023/02/16 09:11:11;;;;;;;38.28;23.40;;;;;;;5.44;77.35;102039.13;5048937;28;20025;-66
2023/02/16 09:13:39;;;;;;;36.90;22.95;;;;;;;5.34;76.44;102036.56;5049400;28;20056;-62
2023/02/16 09:16:07;;;;;;;40.20;24.92;;;;;;;5.39;76.62;102031.84;5048450;28;20040;-65
2023/02/16 09:18:32;;;;;;;38.33;24.60;;;;;;;5.58;76.14;102035.16;5049406;28;20035;-64
2023/02/16 09:21:05;;;;;;;37.97;24.02;;;;;;;5.79;75.32;102028.31;5051702;28;20449;-65
2023/02/16 09:23:32;;;;;;;39.35;23.88;;;;;;;5.95;74.24;102034.69;5053132;28;20025;-65
2023/02/16 09:26:00;;;;;;;35.00;22.83;;;;;;;6.07;74.73;102030.59;5053031;28;20609;-66
2023/02/16 09:28:26;;;;;;;35.70;23.20;;;;;;;6.18;75.48;102027.97;5052606;28;20083;-67
2023/02/16 09:30:53;;;;;;;36.47;24.40;;;;;;;5.83;74.66;101952.56;5035164;28;20029;-64
2023/02/16 09:33:19;;;;;;;35.75;24.20;;;;;;;6.37;74.52;102022.63;5053181;28;20025;-66
2023/02/16 09:35:44;;;;;;;36.25;24.00;;;;;;;6.56;74.38;102031.00;5052568;28;20031;-65
2023/02/16 09:38:09;;;;;;;46.22;30.98;;;;;;;6.63;73.78;102028.16;5051560;28;20088;-66
2023/02/16 09:40:36;;;;;;;39.92;27.15;;;;;;;6.79;72.52;102024.19;5052290;28;20467;-64
2023/02/16 09:43:39;;;;;;;35.80;22.52;;;;;;;6.87;70.56;102017.13;5016185;28;20487;-65
2023/02/16 09:46:11;;;;;;;31.02;20.27;;;;;;;6.94;69.18;102014.22;5052866;28;20037;-61
2023/02/16 09:48:41;;;;;;;32.80;20.65;;;;;;;6.90;67.22;102017.34;5052610;28;20025;-66
2023/02/16 09:51:07;;;;;;;33.22;21.52;;;;;;;7.06;67.21;102010.03;5052485;28;20115;-66
2023/02/16 09:53:39;;;;;;;34.67;21.98;;;;;;;7.19;66.25;102010.94;5051688;28;20065;-62
2023/02/16 09:56:15;;;;;;;35.13;22.33;;;;;;;7.33;66.66;102004.28;5052338;28;20040;-62
2023/02/16 09:58:48;;;;;;;31.67;21.00;;;;;;;7.48;65.96;102005.44;5048998;28;20171;-69
2023/02/16 10:01:40;;;;;;;33.60;21.13;;;;;;;7.58;65.55;102000.19;5052222;28;20028;-66
2023/02/16 10:04:15;;;;;;;34.35;21.08;;;;;;;7.69;64.76;101990.69;5052631;28;20033;-68
2023/02/16 10:07:12;;;;;;;36.63;22.13;;;;;;;7.81;65.18;101994.94;5052345;28;20079;-65
2023/02/16 10:09:41;;;;;;;35.92;21.23;;;;;;;7.89;64.20;101983.56;5052293;28;20107;-64
2023/02/16 10:12:12;;;;;;;32.45;20.95;;;;;;;7.91;64.62;101975.16;5052216;28;20094;-62
2023/02/16 10:14:55;;;;;;;35.72;21.42;;;;;;;8.04;64.69;101969.22;5052095;28;20041;-62
2023/02/16 10:17:43;;;;;;;31.63;20.70;;;;;;;8.25;64.11;101967.25;5051940;28;20544;-66
2023/02/16 10:20:15;;;;;;;29.98;20.38;;;;;;;8.22;62.99;101938.75;5034992;28;20063;-69
2023/02/16 10:22:47;;;;;;;30.15;20.35;;;;;;;8.51;61.87;101969.91;4999927;28;20044;-63
2023/02/16 10:25:20;;;;;;;33.00;20.88;;;;;;;8.41;61.42;101965.75;5051758;28;20475;-66
2023/02/16 10:28:04;;;;;;;31.02;19.90;;;;;;;8.29;61.20;101914.34;5051868;28;20407;-66
2023/02/16 10:30:30;;;;;;;36.15;19.15;;;;;;;8.74;62.03;101961.19;5051716;28;20459;-63
2023/02/16 10:33:04;;;;;;;30.23;19.40;;;;;;;8.68;60.52;101951.34;5047953;28;20352;-67
2023/02/16 10:36:01;;;;;;;29.90;20.02;;;;;;;8.87;60.81;101937.16;5040865;28;20029;-63
2023/02/16 10:38:41;;;;;;;30.50;20.67;;;;;;;9.01;59.79;101941.56;4965981;28;20591;-66
2023/02/16 10:41:25;;;;;;;32.25;21.58;;;;;;;9.08;60.41;101917.09;4970822;28;20831;-67
2023/02/16 10:43:53;;;;;;;31.30;20.27;;;;;;;9.31;59.89;101933.19;4940785;28;20053;-62
2023/02/16 10:46:25;;;;;;;31.92;21.00;;;;;;;9.36;61.60;101924.09;4989550;28;20035;-66
2023/02/16 10:48:55;;;;;;;28.95;20.13;;;;;;;9.42;61.66;101921.00;4989360;28;20148;-66
2023/02/16 10:51:26;;;;;;;32.03;18.88;;;;;;;9.53;59.65;101928.66;4989376;28;20034;-68
2023/02/16 10:53:58;;;;;;;23.45;16.08;;;;;;;8.99;57.94;101795.44;4988858;28;20476;-61
2023/02/16 10:56:48;;;;;;;22.75;14.80;;;;;;;9.63;58.52;101906.94;4989015;28;20540;-64
2023/02/16 10:59:33;;;;;;;21.77;15.52;;;;;;;9.61;57.77;101905.03;4989501;28;20520;-64
2023/02/16 11:02:00;;;;;;;19.75;14.90;;;;;;;9.78;57.45;101895.78;4970313;28;20071;-67
2023/02/16 11:04:36;;;;;;;20.05;14.30;;;;;;;10.08;56.89;101899.41;4969237;28;20026;-69
2023/02/16 11:07:10;;;;;;;23.10;14.65;;;;;;;10.10;55.42;101890.06;4969446;28;20031;-68
2023/02/16 11:09:37;;;;;;;21.33;15.02;;;;;;;10.20;55.67;101886.34;4969437;28;20069;-65
2023/02/16 11:12:26;;;;;;;21.05;14.20;;;;;;;10.37;54.93;101877.09;4969410;28;20081;-66
2023/02/16 11:14:55;;;;;;;23.02;14.68;;;;;;;10.47;55.63;101868.22;4998006;28;20049;-63
2023/02/16 11:17:23;;;;;;;22.63;13.15;;;;;;;10.30;55.13;101877.50;5050265;28;20130;-66
2023/02/16 11:19:57;;;;;;;17.38;13.40;;;;;;;10.25;55.37;101835.03;5050395;28;20021;-64
2023/02/16 11:22:26;;;;;;;19.70;13.63;;;;;;;10.58;54.82;101855.94;5006471;28;20044;-64
2023/02/16 11:24:53;;;;;;;;;;;;;;;10.73;53.21;101853.34;5051072;28;20112;-64
2023/02/16 11:27:21;;;;;;;17.45;11.77;;;;;;;10.64;52.44;101826.22;5050103;28;19916;-70
2023/02/16 11:29:47;;;;;;;17.75;12.20;;;;;;;10.73;52.75;101851.69;5050118;28;20029;-66
2023/02/16 11:32:15;;;;;;;17.98;12.70;;;;;;;10.87;52.58;101849.91;5050249;28;20094;-66
2023/02/16 11:34:51;;;;;;;18.23;12.77;;;;;;;10.98;52.11;101843.66;5049961;28;20029;-65
2023/02/16 11:37:24;;;;;;;18.38;12.38;;;;;;;11.00;52.34;101846.31;5050226;28;20042;-65
2023/02/16 11:40:15;;;;;;;17.98;12.75;;;;;;;11.03;52.18;101843.94;5046784;28;20021;-65
2023/02/16 11:42:46;;;;;;;24.30;16.33;;;;;;;11.14;52.41;101839.34;5049083;28;20120;-66
2023/02/16 11:45:33;;;;;;;24.17;15.63;;;;;;;11.27;50.95;101833.19;4998104;28;20128;-64
2023/02/16 11:48:08;;;;;;;17.00;12.18;;;;;;;11.07;51.29;101790.72;5046282;28;20032;-67
2023/02/16 11:50:37;;;;;;;18.83;12.77;;;;;;;11.14;51.06;101798.00;5050356;28;20100;-64
2023/02/16 11:53:08;;;;;;;17.75;11.90;;;;;;;11.44;50.54;101829.84;4998142;28;20115;-63
2023/02/16 11:55:36;;;;;;;18.08;12.57;;;;;;;11.31;50.56;101780.84;5047321;28;20103;-67
2023/02/16 11:58:17;;;;;;;17.85;13.25;;;;;;;11.57;48.14;101807.25;5050103;28;20032;-63
2023/02/16 12:00:50;;;;;;;17.77;11.43;;;;;;;11.42;48.25;101777.16;5049967;28;20029;-65
2023/02/16 12:03:27;;;;;;;15.60;11.80;;;;;;;11.54;47.68;101796.72;5050049;28;20029;-67
2023/02/16 12:06:11;;;;;;;16.40;12.07;;;;;;;11.43;49.19;101799.63;5049939;28;20032;-68
2023/02/16 12:08:46;;;;;;;20.25;12.82;;;;;;;11.37;49.63;101790.66;5049836;28;20036;-70